sensor_id;sensor_type;location;lat;lon;timestamp;pressure;altitude;pressure_sealevel;temperature;humidity
41830;BME280;38614;43.472;23.936;2023-02-13T00:01:03;102291.19;;;-0.08;nan
41830;BME280;38614;43.472;23.936;2023-02-13T00:03:51;102285.16;;;-0.10;nan
41830;BME280;38614;43.472;23.936;2023-02-13T00:06:39;102283.41;;;-0.05;nan
41830;BME280;38614;43.472;23.936;2023-02-13T00:09:27;102289.91;;;-0.06;nan
41830;BME280;38614;43.472;23.936;2023-02-13T00:12:14;102292.38;;;-0.04;nan
41830;BME280;38614;43.472;23.936;2023-02-13T00:15:03;102292.63;;;-0.06;nan
41830;BME280;38614;43.472;23.936;2023-02-13T00:17:51;102294.41;;;0.01;nan
41830;BME280;38614;43.472;23.936;2023-02-13T00:20:38;102291.69;;;0.01;nan
41830;BME280;38614;43.472;23.936;2023-02-13T00:23:29;102296.75;;;-0.03;nan
41830;BME280;38614;43.472;23.936;2023-02-13T00:26:17;102301.13;;;-0.02;nan
41830;BME280;38614;43.472;23.936;2023-02-13T00:29:06;102293.34;;;0.02;nan
41830;BME280;38614;43.472;23.936;2023-02-13T00:31:53;102271.94;;;0.05;nan
41830;BME280;38614;43.472;23.936;2023-02-13T00:34:41;102287.06;;;0.01;nan
41830;BME280;38614;43.472;23.936;2023-02-13T00:37:30;102305.03;;;0.02;nan
41830;BME280;38614;43.472;23.936;2023-02-13T00:40:19;102305.63;;;0.04;nan
41830;BME280;38614;43.472;23.936;2023-02-13T00:43:07;102299.47;;;-0.03;nan
41830;BME280;38614;43.472;23.936;2023-02-13T00:45:55;102313.16;;;-0.10;nan
41830;BME280;38614;43.472;23.936;2023-02-13T00:48:45;102302.53;;;-0.23;nan
41830;BME280;38614;43.472;23.936;2023-02-13T00:51:33;102311.41;;;-0.04;nan
41830;BME280;38614;43.472;23.936;2023-02-13T00:54:36;102279.22;;;-0.31;nan
41830;BME280;38614;43.472;23.936;2023-02-13T00:57:31;102296.34;;;-0.30;nan
41830;BME280;38614;43.472;23.936;2023-02-13T01:00:22;102287.84;;;-0.45;nan
41830;BME280;38614;43.472;23.936;2023-02-13T01:03:10;102296.69;;;-0.50;nan
41830;BME280;38614;43.472;23.936;2023-02-13T01:05:58;102313.13;;;-0.33;nan
41830;BME280;38614;43.472;23.936;2023-02-13T01:08:45;102289.59;;;-0.51;nan
41830;BME280;38614;43.472;23.936;2023-02-13T01:11:34;102325.91;;;-0.34;nan
41830;BME280;38614;43.472;23.936;2023-02-13T01:14:23;102290.06;;;-0.54;nan
41830;BME280;38614;43.472;23.936;2023-02-13T01:17:10;102307.78;;;-0.51;nan
41830;BME280;38614;43.472;23.936;2023-02-13T01:19:58;102311.09;;;-0.49;nan
41830;BME280;38614;43.472;23.936;2023-02-13T01:22:46;102323.72;;;-0.55;nan
41830;BME280;38614;43.472;23.936;2023-02-13T01:25:39;102279.72;;;-0.75;nan
41830;BME280;38614;43.472;23.936;2023-02-13T01:28:27;102277.00;;;-0.75;nan
41830;BME280;38614;43.472;23.936;2023-02-13T01:31:15;102304.81;;;-0.62;nan
41830;BME280;38614;43.472;23.936;2023-02-13T01:34:03;102301.31;;;-0.80;nan
41830;BME280;38614;43.472;23.936;2023-02-13T01:36:51;102308.63;;;-0.81;nan
41830;BME280;38614;43.472;23.936;2023-02-13T01:39:39;102319.84;;;-0.77;nan
41830;BME280;38614;43.472;23.936;2023-02-13T01:42:29;102288.97;;;-0.95;nan
41830;BME280;38614;43.472;23.936;2023-02-13T01:45:27;102316.28;;;-0.90;nan
41830;BME280;38614;43.472;23.936;2023-02-13T01:48:21;102306.19;;;-1.01;nan
41830;BME280;38614;43.472;23.936;2023-02-13T01:51:15;102286.16;;;-1.00;nan
41830;BME280;38614;43.472;23.936;2023-02-13T01:54:14;102322.59;;;-0.96;nan
41830;BME280;38614;43.472;23.936;2023-02-13T01:57:08;102326.25;;;-1.02;nan
41830;BME280;38614;43.472;23.936;2023-02-13T02:00:16;102309.78;;;-1.19;nan
41830;BME280;38614;43.472;23.936;2023-02-13T02:03:41;102323.41;;;-1.25;nan
41830;BME280;38614;43.472;23.936;2023-02-13T02:06:35;102315.72;;;-1.28;nan
41830;BME280;38614;43.472;23.936;2023-02-13T02:09:28;102304.50;;;-1.32;nan
41830;BME280;38614;43.472;23.936;2023-02-13T02:12:44;102288.03;;;-1.49;nan
41830;BME280;38614;43.472;23.936;2023-02-13T02:15:39;102315.22;;;-1.37;nan
41830;BME280;38614;43.472;23.936;2023-02-13T02:18:28;102279.97;;;-1.55;nan
41830;BME280;38614;43.472;23.936;2023-02-13T02:28:30;102305.84;;;-1.41;nan
41830;BME280;38614;43.472;23.936;2023-02-13T02:32:01;102292.53;;;-1.42;nan
41830;BME280;38614;43.472;23.936;2023-02-13T02:38:29;102302.53;;;-1.43;nan
41830;BME280;38614;43.472;23.936;2023-02-13T02:41:41;102298.41;;;-1.46;nan
41830;BME280;38614;43.472;23.936;2023-02-13T02:45:34;102306.59;;;-1.52;nan
41830;BME280;38614;43.472;23.936;2023-02-13T02:54:59;102303.13;;;-1.59;nan
41830;BME280;38614;43.472;23.936;2023-02-13T02:58:15;102280.63;;;-1.78;nan
41830;BME280;38614;43.472;23.936;2023-02-13T03:01:27;102306.59;;;-1.52;nan
41830;BME280;38614;43.472;23.936;2023-02-13T03:04:46;102293.56;;;-1.62;nan
41830;BME280;38614;43.472;23.936;2023-02-13T03:07:53;102276.84;;;-1.77;nan
41830;BME280;38614;43.472;23.936;2023-02-13T03:10:41;102294.28;;;-1.66;nan
41830;BME280;38614;43.472;23.936;2023-02-13T03:13:48;102297.19;;;-1.68;nan
41830;BME280;38614;43.472;23.936;2023-02-13T03:16:36;102303.81;;;-1.64;nan
41830;BME280;38614;43.472;23.936;2023-02-13T03:32:50;102225.00;;;-2.24;nan
41830;BME280;38614;43.472;23.936;2023-02-13T03:36:30;102299.88;;;-1.86;nan
41830;BME280;38614;43.472;23.936;2023-02-13T03:42:49;102312.28;;;-1.97;nan
41830;BME280;38614;43.472;23.936;2023-02-13T03:45:43;102299.03;;;-1.87;nan
41830;BME280;38614;43.472;23.936;2023-02-13T03:48:25;102271.91;;;-2.05;nan
41830;BME280;38614;43.472;23.936;2023-02-13T03:51:40;102264.53;;;-2.16;nan
41830;BME280;38614;43.472;23.936;2023-02-13T03:54:33;102295.88;;;-2.02;nan
41830;BME280;38614;43.472;23.936;2023-02-13T03:57:46;102252.22;;;-2.37;nan
41830;BME280;38614;43.472;23.936;2023-02-13T04:00:57;102259.75;;;-2.39;nan
41830;BME280;38614;43.472;23.936;2023-02-13T04:07:02;102315.00;;;-2.22;nan
41830;BME280;38614;43.472;23.936;2023-02-13T04:09:51;102307.59;;;-2.33;nan
41830;BME280;38614;43.472;23.936;2023-02-13T04:16:12;102314.94;;;-2.40;nan
41830;BME280;38614;43.472;23.936;2023-02-13T04:19:04;102309.53;;;-2.40;nan
41830;BME280;38614;43.472;23.936;2023-02-13T04:21:57;102325.09;;;-2.36;nan
41830;BME280;38614;43.472;23.936;2023-02-13T04:24:45;102298.19;;;-2.55;nan
41830;BME280;38614;43.472;23.936;2023-02-13T04:27:35;102317.47;;;-2.45;nan
41830;BME280;38614;43.472;23.936;2023-02-13T04:30:23;102314.19;;;-2.54;nan
41830;BME280;38614;43.472;23.936;2023-02-13T04:33:11;102314.81;;;-2.52;nan
41830;BME280;38614;43.472;23.936;2023-02-13T04:35:59;102291.59;;;-2.66;nan
41830;BME280;38614;43.472;23.936;2023-02-13T04:38:46;102292.88;;;-2.69;nan
41830;BME280;38614;43.472;23.936;2023-02-13T04:41:36;102307.66;;;-2.71;nan
41830;BME280;38614;43.472;23.936;2023-02-13T04:44:24;102320.84;;;-2.50;nan
41830;BME280;38614;43.472;23.936;2023-02-13T04:47:12;102302.81;;;-2.63;nan
41830;BME280;38614;43.472;23.936;2023-02-13T04:50:00;102318.16;;;-2.50;nan
41830;BME280;38614;43.472;23.936;2023-02-13T04:52:52;102326.16;;;-2.37;nan
41830;BME280;38614;43.472;23.936;2023-02-13T04:55:40;102337.59;;;-2.35;nan
41830;BME280;38614;43.472;23.936;2023-02-13T04:58:31;102333.06;;;-2.41;nan
41830;BME280;38614;43.472;23.936;2023-02-13T05:01:20;102329.13;;;-2.45;nan
41830;BME280;38614;43.472;23.936;2023-02-13T05:04:08;102337.69;;;-2.48;nan
41830;BME280;38614;43.472;23.936;2023-02-13T05:06:57;102339.63;;;-2.55;nan
41830;BME280;38614;43.472;23.936;2023-02-13T05:09:45;102342.53;;;-2.56;nan
41830;BME280;38614;43.472;23.936;2023-02-13T05:12:35;102318.06;;;-2.68;nan
41830;BME280;38614;43.472;23.936;2023-02-13T05:15:24;102323.06;;;-2.72;nan
41830;BME280;38614;43.472;23.936;2023-02-13T05:18:12;102342.44;;;-2.75;nan
41830;BME280;38614;43.472;23.936;2023-02-13T05:20:59;102352.44;;;-2.75;nan
41830;BME280;38614;43.472;23.936;2023-02-13T05:24:05;102350.00;;;-2.83;nan
41830;BME280;38614;43.472;23.936;2023-02-13T05:26:53;102323.84;;;-2.96;nan
41830;BME280;38614;43.472;23.936;2023-02-13T05:29:43;102343.72;;;-2.77;nan
41830;BME280;38614;43.472;23.936;2023-02-13T05:32:31;102360.53;;;-2.69;nan
41830;BME280;38614;43.472;23.936;2023-02-13T05:35:22;102358.00;;;-2.64;nan
41830;BME280;38614;43.472;23.936;2023-02-13T05:38:11;102366.13;;;-2.64;nan
41830;BME280;38614;43.472;23.936;2023-02-13T05:40:59;102376.31;;;-2.59;nan
41830;BME280;38614;43.472;23.936;2023-02-13T05:43:47;102370.22;;;-2.54;nan
41830;BME280;38614;43.472;23.936;2023-02-13T05:46:36;102376.25;;;-2.52;nan
41830;BME280;38614;43.472;23.936;2023-02-13T05:49:25;102367.72;;;-2.49;nan
41830;BME280;38614;43.472;23.936;2023-02-13T05:52:13;102374.03;;;-2.31;nan
41830;BME280;38614;43.472;23.936;2023-02-13T05:55:01;102371.34;;;-2.31;nan
41830;BME280;38614;43.472;23.936;2023-02-13T05:57:49;102374.16;;;-2.19;nan
41830;BME280;38614;43.472;23.936;2023-02-13T06:00:36;102376.75;;;-2.31;nan
41830;BME280;38614;43.472;23.936;2023-02-13T06:03:25;102366.00;;;-2.12;nan
41830;BME280;38614;43.472;23.936;2023-02-13T06:06:16;102377.38;;;-2.04;nan
41830;BME280;38614;43.472;23.936;2023-02-13T06:09:03;102349.59;;;-2.24;nan
41830;BME280;38614;43.472;23.936;2023-02-13T06:11:51;102378.91;;;-2.14;nan
41830;BME280;38614;43.472;23.936;2023-02-13T06:14:39;102376.00;;;-2.13;nan
41830;BME280;38614;43.472;23.936;2023-02-13T06:17:27;102363.88;;;-2.10;nan
41830;BME280;38614;43.472;23.936;2023-02-13T06:20:14;102384.88;;;-1.56;nan
41830;BME280;38614;43.472;23.936;2023-02-13T06:23:02;102384.75;;;-0.58;nan
41830;BME280;38614;43.472;23.936;2023-02-13T06:25:50;102386.97;;;0.29;nan
41830;BME280;38614;43.472;23.936;2023-02-13T06:28:38;102379.47;;;0.83;nan
41830;BME280;38614;43.472;23.936;2023-02-13T06:31:26;102370.41;;;0.66;nan
41830;BME280;38614;43.472;23.936;2023-02-13T06:34:13;102372.75;;;0.15;nan
41830;BME280;38614;43.472;23.936;2023-02-13T06:37:01;102373.41;;;-0.24;nan
41830;BME280;38614;43.472;23.936;2023-02-13T06:39:49;102372.50;;;-0.48;nan
41830;BME280;38614;43.472;23.936;2023-02-13T06:42:37;102386.63;;;-0.58;nan
41830;BME280;38614;43.472;23.936;2023-02-13T06:45:24;102382.19;;;-0.52;nan
41830;BME280;38614;43.472;23.936;2023-02-13T06:48:13;102394.94;;;-0.53;nan
41830;BME280;38614;43.472;23.936;2023-02-13T06:51:04;102369.78;;;-0.48;nan
41830;BME280;38614;43.472;23.936;2023-02-13T06:53:51;102406.59;;;0.66;nan
41830;BME280;38614;43.472;23.936;2023-02-13T06:56:42;102388.66;;;1.91;nan
41830;BME280;38614;43.472;23.936;2023-02-13T06:59:30;102359.47;;;2.80;nan
41830;BME280;38614;43.472;23.936;2023-02-13T07:02:18;102359.97;;;3.48;nan
41830;BME280;38614;43.472;23.936;2023-02-13T07:05:06;102344.06;;;3.72;nan
41830;BME280;38614;43.472;23.936;2023-02-13T07:07:55;102357.69;;;4.31;nan
41830;BME280;38614;43.472;23.936;2023-02-13T07:10:44;102361.44;;;3.88;nan
41830;BME280;38614;43.472;23.936;2023-02-13T07:13:32;102360.69;;;3.97;nan
41830;BME280;38614;43.472;23.936;2023-02-13T07:16:20;102348.97;;;4.39;nan
41830;BME280;38614;43.472;23.936;2023-02-13T07:19:08;102352.00;;;4.38;nan
41830;BME280;38614;43.472;23.936;2023-02-13T07:21:56;102368.09;;;4.34;nan
41830;BME280;38614;43.472;23.936;2023-02-13T07:24:44;102371.72;;;4.40;nan
41830;BME280;38614;43.472;23.936;2023-02-13T07:27:31;102359.25;;;4.22;nan
41830;BME280;38614;43.472;23.936;2023-02-13T07:30:19;102357.81;;;4.51;nan
41830;BME280;38614;43.472;23.936;2023-02-13T07:33:08;102360.31;;;4.58;nan
41830;BME280;38614;43.472;23.936;2023-02-13T07:35:59;102364.91;;;4.95;nan
41830;BME280;38614;43.472;23.936;2023-02-13T07:38:49;102354.81;;;5.10;nan
41830;BME280;38614;43.472;23.936;2023-02-13T07:41:36;102363.03;;;5.10;nan
41830;BME280;38614;43.472;23.936;2023-02-13T07:44:26;102363.25;;;4.99;nan
41830;BME280;38614;43.472;23.936;2023-02-13T07:47:14;102353.63;;;4.86;nan
41830;BME280;38614;43.472;23.936;2023-02-13T07:50:03;102359.88;;;4.81;nan
41830;BME280;38614;43.472;23.936;2023-02-13T07:53:00;102363.16;;;4.78;nan
41830;BME280;38614;43.472;23.936;2023-02-13T07:55:48;102347.16;;;4.55;nan
41830;BME280;38614;43.472;23.936;2023-02-13T07:58:36;102359.00;;;4.23;nan
41830;BME280;38614;43.472;23.936;2023-02-13T08:01:26;102369.34;;;3.84;nan
41830;BME280;38614;43.472;23.936;2023-02-13T08:04:14;102360.91;;;3.59;nan
41830;BME280;38614;43.472;23.936;2023-02-13T08:07:02;102333.75;;;3.52;nan
41830;BME280;38614;43.472;23.936;2023-02-13T08:09:49;102334.19;;;3.66;nan
41830;BME280;38614;43.472;23.936;2023-02-13T08:12:56;102337.47;;;4.00;nan
41830;BME280;38614;43.472;23.936;2023-02-13T08:15:44;102355.50;;;4.33;nan
41830;BME280;38614;43.472;23.936;2023-02-13T08:18:31;102352.72;;;4.70;nan
41830;BME280;38614;43.472;23.936;2023-02-13T08:21:19;102324.81;;;4.78;nan
41830;BME280;38614;43.472;23.936;2023-02-13T08:24:07;102321.94;;;4.53;nan
41830;BME280;38614;43.472;23.936;2023-02-13T08:26:55;102329.13;;;4.64;nan
41830;BME280;38614;43.472;23.936;2023-02-13T08:29:43;102339.78;;;4.61;nan
41830;BME280;38614;43.472;23.936;2023-02-13T08:32:30;102343.44;;;4.76;nan
41830;BME280;38614;43.472;23.936;2023-02-13T08:35:34;102349.56;;;4.94;nan
41830;BME280;38614;43.472;23.936;2023-02-13T08:38:22;102345.28;;;5.38;nan
41830;BME280;38614;43.472;23.936;2023-02-13T08:41:13;102320.00;;;5.06;nan
41830;BME280;38614;43.472;23.936;2023-02-13T08:44:01;102312.16;;;5.50;nan
41830;BME280;38614;43.472;23.936;2023-02-13T08:46:49;102337.66;;;5.66;nan
41830;BME280;38614;43.472;23.936;2023-02-13T08:49:37;102345.38;;;5.89;nan
41830;BME280;38614;43.472;23.936;2023-02-13T08:52:24;102344.28;;;6.21;nan
41830;BME280;38614;43.472;23.936;2023-02-13T08:55:12;102350.63;;;6.01;nan
41830;BME280;38614;43.472;23.936;2023-02-13T08:58:03;102348.69;;;6.12;nan
41830;BME280;38614;43.472;23.936;2023-02-13T09:00:51;102342.63;;;5.74;nan
41830;BME280;38614;43.472;23.936;2023-02-13T09:03:39;102340.47;;;5.96;nan
41830;BME280;38614;43.472;23.936;2023-02-13T09:06:26;102345.09;;;5.86;nan
41830;BME280;38614;43.472;23.936;2023-02-13T09:09:17;102348.38;;;5.72;nan
41830;BME280;38614;43.472;23.936;2023-02-13T09:12:04;102328.63;;;5.65;nan
41830;BME280;38614;43.472;23.936;2023-02-13T09:14:52;102341.28;;;6.12;nan
41830;BME280;38614;43.472;23.936;2023-02-13T09:17:40;102340.41;;;6.52;nan
41830;BME280;38614;43.472;23.936;2023-02-13T09:20:27;102329.19;;;7.13;nan
41830;BME280;38614;43.472;23.936;2023-02-13T09:23:15;102320.81;;;7.34;nan
41830;BME280;38614;43.472;23.936;2023-02-13T09:26:09;102324.06;;;7.41;nan
41830;BME280;38614;43.472;23.936;2023-02-13T09:29:00;102333.63;;;7.88;nan
41830;BME280;38614;43.472;23.936;2023-02-13T09:31:48;102318.13;;;7.68;nan
41830;BME280;38614;43.472;23.936;2023-02-13T09:34:36;102317.13;;;7.88;nan
41830;BME280;38614;43.472;23.936;2023-02-13T09:37:23;102312.09;;;7.61;nan
41830;BME280;38614;43.472;23.936;2023-02-13T09:40:24;102322.50;;;7.25;nan
41830;BME280;38614;43.472;23.936;2023-02-13T09:43:33;102293.56;;;7.37;nan
41830;BME280;38614;43.472;23.936;2023-02-13T09:46:29;102308.28;;;7.57;nan
41830;BME280;38614;43.472;23.936;2023-02-13T09:49:23;102297.50;;;7.65;nan
41830;BME280;38614;43.472;23.936;2023-02-13T09:52:13;102292.69;;;7.81;nan
41830;BME280;38614;43.472;23.936;2023-02-13T09:55:03;102304.69;;;7.95;nan
41830;BME280;38614;43.472;23.936;2023-02-13T09:58:02;102285.53;;;7.80;nan
41830;BME280;38614;43.472;23.936;2023-02-13T10:00:57;102278.94;;;7.42;nan
41830;BME280;38614;43.472;23.936;2023-02-13T10:17:03;102267.22;;;8.23;nan
41830;BME280;38614;43.472;23.936;2023-02-13T10:19:59;102274.38;;;8.24;nan
41830;BME280;38614;43.472;23.936;2023-02-13T10:22:52;102267.66;;;7.78;nan
41830;BME280;38614;43.472;23.936;2023-02-13T10:26:00;102258.00;;;8.09;nan
41830;BME280;38614;43.472;23.936;2023-02-13T10:32:30;102252.69;;;8.47;nan
41830;BME280;38614;43.472;23.936;2023-02-13T10:35:28;102247.00;;;8.33;nan
41830;BME280;38614;43.472;23.936;2023-02-13T10:38:20;102233.97;;;8.20;nan
41830;BME280;38614;43.472;23.936;2023-02-13T11:02:30;102205.59;;;8.19;nan
41830;BME280;38614;43.472;23.936;2023-02-13T11:05:29;102212.06;;;8.57;nan
41830;BME280;38614;43.472;23.936;2023-02-13T11:08:41;102205.28;;;8.69;nan
41830;BME280;38614;43.472;23.936;2023-02-13T11:11:31;102212.84;;;8.10;nan
41830;BME280;38614;43.472;23.936;2023-02-13T11:14:24;102205.13;;;8.36;nan
41830;BME280;38614;43.472;23.936;2023-02-13T11:17:17;102189.22;;;8.52;nan
41830;BME280;38614;43.472;23.936;2023-02-13T11:29:28;102198.22;;;8.39;nan
41830;BME280;38614;43.472;23.936;2023-02-13T11:32:22;102181.19;;;8.32;nan
41830;BME280;38614;43.472;23.936;2023-02-13T11:35:29;102183.19;;;8.02;nan
41830;BME280;38614;43.472;23.936;2023-02-13T11:38:19;102184.94;;;8.17;nan
41830;BME280;38614;43.472;23.936;2023-02-13T11:41:21;102166.88;;;8.11;nan
41830;BME280;38614;43.472;23.936;2023-02-13T11:47:10;102165.59;;;8.46;nan
41830;BME280;38614;43.472;23.936;2023-02-13T11:50:01;102161.75;;;8.23;nan
41830;BME280;38614;43.472;23.936;2023-02-13T11:53:02;102134.38;;;8.32;nan
41830;BME280;38614;43.472;23.936;2023-02-13T11:59:00;102150.38;;;8.06;nan
41830;BME280;38614;43.472;23.936;2023-02-13T12:02:16;102154.78;;;8.07;nan
41830;BME280;38614;43.472;23.936;2023-02-13T12:05:20;102136.56;;;8.35;nan
41830;BME280;38614;43.472;23.936;2023-02-13T12:08:16;102134.63;;;8.54;nan
41830;BME280;38614;43.472;23.936;2023-02-13T12:14:01;102113.69;;;7.91;nan
41830;BME280;38614;43.472;23.936;2023-02-13T12:17:11;102115.28;;;8.40;nan
41830;BME280;38614;43.472;23.936;2023-02-13T12:20:16;102113.94;;;8.38;nan
41830;BME280;38614;43.472;23.936;2023-02-13T12:29:38;102100.72;;;7.92;nan
41830;BME280;38614;43.472;23.936;2023-02-13T12:55:20;102071.06;;;8.26;nan
41830;BME280;38614;43.472;23.936;2023-02-13T13:04:33;102070.63;;;8.00;nan
41830;BME280;38614;43.472;23.936;2023-02-13T13:14:13;102061.00;;;7.98;nan
41830;BME280;38614;43.472;23.936;2023-02-13T13:23:23;102054.34;;;7.80;nan
41830;BME280;38614;43.472;23.936;2023-02-13T13:26:21;102005.06;;;7.60;nan
41830;BME280;38614;43.472;23.936;2023-02-13T13:32:06;102045.38;;;7.69;nan
41830;BME280;38614;43.472;23.936;2023-02-13T13:34:56;102035.91;;;7.57;nan
41830;BME280;38614;43.472;23.936;2023-02-13T13:41:17;102036.44;;;7.59;nan
41830;BME280;38614;43.472;23.936;2023-02-13T13:50:27;101989.78;;;7.25;nan
41830;BME280;38614;43.472;23.936;2023-02-13T13:56:06;102018.81;;;7.36;nan
41830;BME280;38614;43.472;23.936;2023-02-13T13:58:56;101984.09;;;7.16;nan
41830;BME280;38614;43.472;23.936;2023-02-13T14:01:44;102019.09;;;7.34;nan
41830;BME280;38614;43.472;23.936;2023-02-13T14:07:23;102024.97;;;7.28;nan
41830;BME280;38614;43.472;23.936;2023-02-13T14:13:07;102019.91;;;7.11;nan
41830;BME280;38614;43.472;23.936;2023-02-13T14:15:55;101969.63;;;6.81;nan
41830;BME280;38614;43.472;23.936;2023-02-13T14:18:45;102018.88;;;7.02;nan
41830;BME280;38614;43.472;23.936;2023-02-13T14:21:33;102012.50;;;7.06;nan
41830;BME280;38614;43.472;23.936;2023-02-13T14:24:22;102005.97;;;7.02;nan
41830;BME280;38614;43.472;23.936;2023-02-13T14:27:21;102007.50;;;6.84;nan
41830;BME280;38614;43.472;23.936;2023-02-13T14:30:31;102007.50;;;6.84;nan
41830;BME280;38614;43.472;23.936;2023-02-13T14:33:27;102001.28;;;6.74;nan
41830;BME280;38614;43.472;23.936;2023-02-13T14:36:21;102006.28;;;6.67;nan
41830;BME280;38614;43.472;23.936;2023-02-13T14:39:34;101968.50;;;6.53;nan
41830;BME280;38614;43.472;23.936;2023-02-13T14:42:26;102000.41;;;6.78;nan
41830;BME280;38614;43.472;23.936;2023-02-13T14:45:19;101999.69;;;6.68;nan
41830;BME280;38614;43.472;23.936;2023-02-13T14:48:12;102004.00;;;6.45;nan
41830;BME280;38614;43.472;23.936;2023-02-13T14:51:04;101993.31;;;6.38;nan
41830;BME280;38614;43.472;23.936;2023-02-13T14:56:56;101993.94;;;6.30;nan
41830;BME280;38614;43.472;23.936;2023-02-13T14:59:48;101986.06;;;6.13;nan
41830;BME280;38614;43.472;23.936;2023-02-13T15:02:41;101962.59;;;5.97;nan
41830;BME280;38614;43.472;23.936;2023-02-13T15:05:34;101954.31;;;6.02;nan
41830;BME280;38614;43.472;23.936;2023-02-13T15:08:26;101978.19;;;6.02;nan
41830;BME280;38614;43.472;23.936;2023-02-13T15:11:33;101980.13;;;6.01;nan
41830;BME280;38614;43.472;23.936;2023-02-13T15:14:29;101966.19;;;5.82;nan
41830;BME280;38614;43.472;23.936;2023-02-13T15:17:20;101958.38;;;5.55;nan
41830;BME280;38614;43.472;23.936;2023-02-13T15:20:22;101963.91;;;5.45;nan
41830;BME280;38614;43.472;23.936;2023-02-13T15:23:27;101954.13;;;5.19;nan
41830;BME280;38614;43.472;23.936;2023-02-13T15:26:21;101941.31;;;5.04;nan
41830;BME280;38614;43.472;23.936;2023-02-13T15:29:16;101960.47;;;5.09;nan
41830;BME280;38614;43.472;23.936;2023-02-13T15:32:20;101946.56;;;4.80;nan
41830;BME280;38614;43.472;23.936;2023-02-13T15:35:24;101932.91;;;4.49;nan
41830;BME280;38614;43.472;23.936;2023-02-13T15:38:33;101938.91;;;4.36;nan
41830;BME280;38614;43.472;23.936;2023-02-13T15:41:24;101943.03;;;4.39;nan
41830;BME280;38614;43.472;23.936;2023-02-13T15:44:19;101952.59;;;4.26;nan
41830;BME280;38614;43.472;23.936;2023-02-13T15:47:30;101949.03;;;4.10;nan
41830;BME280;38614;43.472;23.936;2023-02-13T15:50:32;101954.50;;;4.05;nan
41830;BME280;38614;43.472;23.936;2023-02-13T15:53:21;101878.91;;;3.48;nan
41830;BME280;38614;43.472;23.936;2023-02-13T15:56:13;101878.88;;;3.43;nan
41830;BME280;38614;43.472;23.936;2023-02-13T15:59:02;101950.59;;;3.76;nan
41830;BME280;38614;43.472;23.936;2023-02-13T16:01:50;101955.47;;;3.58;nan
41830;BME280;38614;43.472;23.936;2023-02-13T16:04:39;101931.31;;;3.30;nan
41830;BME280;38614;43.472;23.936;2023-02-13T16:07:28;101960.31;;;3.41;nan
41830;BME280;38614;43.472;23.936;2023-02-13T16:13:15;101954.63;;;3.48;nan
41830;BME280;38614;43.472;23.936;2023-02-13T16:16:08;101960.31;;;3.41;nan
41830;BME280;38614;43.472;23.936;2023-02-13T16:18:57;101890.34;;;2.77;nan
41830;BME280;38614;43.472;23.936;2023-02-13T16:21:46;101968.91;;;3.12;nan
41830;BME280;38614;43.472;23.936;2023-02-13T16:24:35;101965.16;;;3.24;nan
41830;BME280;38614;43.472;23.936;2023-02-13T16:27:26;101969.59;;;3.40;nan
41830;BME280;38614;43.472;23.936;2023-02-13T16:30:35;101971.97;;;3.21;nan
41830;BME280;38614;43.472;23.936;2023-02-13T16:33:34;101965.81;;;2.94;nan
41830;BME280;38614;43.472;23.936;2023-02-13T16:36:28;101955.88;;;2.77;nan
41830;BME280;38614;43.472;23.936;2023-02-13T16:39:17;101960.44;;;2.67;nan
41830;BME280;38614;43.472;23.936;2023-02-13T16:42:18;101925.84;;;2.40;nan
41830;BME280;38614;43.472;23.936;2023-02-13T16:45:25;101953.66;;;2.37;nan
41830;BME280;38614;43.472;23.936;2023-02-13T16:48:14;101960.28;;;2.46;nan
41830;BME280;38614;43.472;23.936;2023-02-13T16:51:02;101966.28;;;2.43;nan
41830;BME280;38614;43.472;23.936;2023-02-13T17:00:21;101949.84;;;2.38;nan
41830;BME280;38614;43.472;23.936;2023-02-13T17:03:11;101942.75;;;2.37;nan
41830;BME280;38614;43.472;23.936;2023-02-13T17:06:03;101969.47;;;2.35;nan
41830;BME280;38614;43.472;23.936;2023-02-13T17:08:51;101947.47;;;2.15;nan
41830;BME280;38614;43.472;23.936;2023-02-13T17:11:49;101960.22;;;2.09;nan
41830;BME280;38614;43.472;23.936;2023-02-13T17:14:37;101947.16;;;1.84;nan
41830;BME280;38614;43.472;23.936;2023-02-13T17:17:27;101956.97;;;1.85;nan
41830;BME280;38614;43.472;23.936;2023-02-13T17:20:17;101971.09;;;1.77;nan
41830;BME280;38614;43.472;23.936;2023-02-13T17:23:17;101969.41;;;1.76;nan
41830;BME280;38614;43.472;23.936;2023-02-13T17:26:10;101975.84;;;1.65;nan
41830;BME280;38614;43.472;23.936;2023-02-13T17:29:01;101957.41;;;1.50;nan
41830;BME280;38614;43.472;23.936;2023-02-13T17:31:51;101969.97;;;1.51;nan
41830;BME280;38614;43.472;23.936;2023-02-13T17:34:40;101980.28;;;1.49;nan
41830;BME280;38614;43.472;23.936;2023-02-13T17:37:28;101971.97;;;1.39;nan
41830;BME280;38614;43.472;23.936;2023-02-13T17:40:19;101974.00;;;1.27;nan
41830;BME280;38614;43.472;23.936;2023-02-13T17:43:10;101972.78;;;1.18;nan
41830;BME280;38614;43.472;23.936;2023-02-13T17:45:58;101976.72;;;1.05;nan
41830;BME280;38614;43.472;23.936;2023-02-13T17:48:47;101937.25;;;0.85;nan
41830;BME280;38614;43.472;23.936;2023-02-13T17:51:37;101962.03;;;0.89;nan
41830;BME280;38614;43.472;23.936;2023-02-13T17:54:26;101967.22;;;0.91;nan
41830;BME280;38614;43.472;23.936;2023-02-13T17:57:15;101899.03;;;0.42;nan
41830;BME280;38614;43.472;23.936;2023-02-13T18:00:04;101966.66;;;0.89;nan
41830;BME280;38614;43.472;23.936;2023-02-13T18:02:59;101930.66;;;0.65;nan
41830;BME280;38614;43.472;23.936;2023-02-13T18:05:48;101969.56;;;0.82;nan
41830;BME280;38614;43.472;23.936;2023-02-13T18:08:36;101962.56;;;0.69;nan
41830;BME280;38614;43.472;23.936;2023-02-13T18:11:23;101958.38;;;0.62;nan
41830;BME280;38614;43.472;23.936;2023-02-13T18:14:11;101955.81;;;0.55;nan
41830;BME280;38614;43.472;23.936;2023-02-13T18:16:59;101969.19;;;0.56;nan
41830;BME280;38614;43.472;23.936;2023-02-13T18:19:47;101969.91;;;0.52;nan
41830;BME280;38614;43.472;23.936;2023-02-13T18:22:36;101966.03;;;0.65;nan